Time;durP1;ratioP1;P1;durP2;ratioP2;P2;SDS_P1;SDS_P2;PMS_P1;PMS_P2;Temp;Humidity;BMP_temperature;BMP_pressure;BME280_temperature;BME280_humidity;BME280_pressure;Samples;Min_cycle;Max_cycle;Signal;HPM_P1;HPM_P2
2023/01/29 00:01:51;;;;;;;12.50;5.57;;;6.50;99.90;;;;;;5059458;28;20029;-69
2023/01/29 00:04:21;;;;;;;13.30;5.28;;;6.50;99.90;;;;;;5059351;28;20021;-69
2023/01/29 00:06:47;;;;;;;13.80;5.72;;;6.50;99.90;;;;;;5041564;28;20036;-68
2023/01/29 00:09:13;;;;;;;16.45;6.18;;;6.50;99.90;;;;;;5061401;28;20043;-69
2023/01/29 00:11:39;;;;;;;15.88;6.13;;;6.50;99.90;;;;;;5041119;28;20036;-68
2023/01/29 00:14:05;;;;;;;15.18;5.10;;;6.50;99.90;;;;;;5059386;28;20399;-68
2023/01/29 00:16:31;;;;;;;9.75;5.07;;;6.50;99.90;;;;;;5062378;28;20392;-68
2023/01/29 00:18:57;;;;;;;12.23;5.72;;;6.50;99.90;;;;;;5065524;28;20111;-70
2023/01/29 00:21:23;;;;;;;13.18;5.80;;;6.50;99.90;;;;;;5063795;28;20020;-69
2023/01/29 00:23:49;;;;;;;13.73;5.93;;;6.50;99.90;;;;;;5064617;28;20029;-69
2023/01/29 00:26:15;;;;;;;14.93;5.57;;;6.50;99.90;;;;;;5057521;28;20029;-70
2023/01/29 00:28:41;;;;;;;14.05;6.22;;;6.50;99.90;;;;;;5067216;28;20390;-68
2023/01/29 00:31:15;;;;;;;15.18;6.30;;;6.50;99.90;;;;;;5064551;28;20029;-70
2023/01/29 00:33:41;;;;;;;14.23;6.30;;;6.50;99.90;;;;;;5059458;28;20033;-69
2023/01/29 00:36:09;;;;;;;13.38;6.57;;;6.60;99.90;;;;;;5071321;28;20445;-70
2023/01/29 00:38:36;;;;;;;14.93;6.25;;;6.60;99.90;;;;;;5060819;28;20317;-69
2023/01/29 00:46:41;;;;;;;13.02;6.40;;;6.50;99.90;;;;;;5061568;28;20040;-69
2023/01/29 00:49:07;;;;;;;17.42;6.72;;;6.60;99.90;;;;;;5064101;28;20033;-69
2023/01/29 00:51:34;;;;;;;14.55;6.05;;;6.60;99.90;;;;;;5068447;28;20024;-69
2023/01/29 00:53:59;;;;;;;13.70;6.30;;;6.50;99.90;;;;;;5057713;28;20033;-68
2023/01/29 00:56:26;;;;;;;16.42;6.38;;;6.50;99.90;;;;;;5069300;28;20037;-68
2023/01/29 00:58:53;;;;;;;15.50;6.32;;;6.50;99.90;;;;;;5062993;28;20441;-69
2023/01/29 01:04:04;;;;;;;15.98;6.30;;;6.50;99.90;;;;;;5074480;28;20101;-68
2023/01/29 01:06:30;;;;;;;14.60;6.43;;;6.50;99.90;;;;;;5085298;28;20107;-69
2023/01/29 01:11:39;;;;;;;14.73;6.28;;;6.60;99.90;;;;;;5060201;28;20396;-68
2023/01/29 01:14:06;;;;;;;14.43;6.65;;;6.60;99.90;;;;;;5061419;28;20470;-69
2023/01/29 01:16:32;;;;;;;13.50;6.95;;;6.60;99.90;;;;;;5061136;28;20045;-69
2023/01/29 01:18:57;;;;;;;14.43;6.88;;;6.60;99.90;;;;;;5042090;28;20040;-67
2023/01/29 01:21:23;;;;;;;14.50;6.53;;;6.60;99.90;;;;;;5062507;28;20029;-67
2023/01/29 01:23:50;;;;;;;17.13;6.95;;;6.60;99.90;;;;;;5064096;28;20075;-69
2023/01/29 01:26:16;;;;;;;15.35;6.63;;;6.60;99.90;;;;;;5057004;28;20028;-69
2023/01/29 01:28:42;;;;;;;13.48;6.45;;;6.70;99.90;;;;;;5063825;28;20028;-69
2023/01/29 01:31:12;;;;;;;15.35;7.80;;;6.70;99.90;;;;;;5063647;28;20024;-69
2023/01/29 01:33:38;;;;;;;16.70;7.57;;;6.70;99.90;;;;;;5056991;28;20041;-69
2023/01/29 01:36:08;;;;;;;16.60;7.75;;;6.70;99.90;;;;;;5070248;28;20084;-69
2023/01/29 01:38:35;;;;;;;14.90;7.47;;;6.70;99.90;;;;;;5059548;28;20486;-69
2023/01/29 01:41:01;;;;;;;13.32;6.53;;;6.70;99.90;;;;;;5063643;28;20024;-69
2023/01/29 01:43:26;;;;;;;13.38;6.40;;;6.70;99.90;;;;;;5080135;28;20119;-69
2023/01/29 01:45:52;;;;;;;14.55;7.35;;;6.70;99.90;;;;;;5056661;28;20068;-69
2023/01/29 01:48:24;;;;;;;13.85;6.43;;;6.80;99.90;;;;;;5080066;28;20027;-69
2023/01/29 01:50:55;;;;;;;15.18;6.68;;;6.80;99.90;;;;;;5065154;28;20094;-69
2023/01/29 01:53:40;;;;;;;12.52;6.18;;;6.80;99.90;;;;;;5066012;28;20021;-69
2023/01/29 01:56:13;;;;;;;13.88;7.20;;;6.80;99.90;;;;;;5056231;28;20056;-69
2023/01/29 01:58:45;;;;;;;12.55;6.55;;;6.80;99.90;;;;;;5066400;28;20031;-69
2023/01/29 02:01:12;;;;;;;;;;;6.80;99.90;;;;;;5064677;28;20025;-67
2023/01/29 02:09:33;;;;;;;13.90;6.45;;;6.80;99.90;;;;;;5064251;28;20043;-68
2023/01/29 02:12:04;;;;;;;12.52;6.05;;;6.80;99.90;;;;;;5056370;28;20127;-69
2023/01/29 02:14:30;;;;;;;14.30;6.70;;;6.80;99.90;;;;;;5067577;28;20041;-69
2023/01/29 02:16:59;;;;;;;16.02;7.28;;;6.80;99.90;;;;;;5061469;28;20293;-70
2023/01/29 02:19:48;;;;;;;15.02;7.45;;;6.80;99.90;;;;;;5059647;28;20053;-68
2023/01/29 02:22:29;;;;;;;14.70;7.05;;;6.80;99.90;;;;;;5068815;28;20507;-68
2023/01/29 02:24:57;;;;;;;14.90;6.75;;;6.80;99.90;;;;;;5052658;28;20135;-70
2023/01/29 02:27:58;;;;;;;15.57;7.00;;;6.80;99.90;;;;;;5065395;28;20023;-68
2023/01/29 02:30:57;;;;;;;12.25;6.15;;;6.80;99.90;;;;;;5057826;28;20540;-69
2023/01/29 02:33:40;;;;;;;16.60;7.05;;;6.70;99.90;;;;;;5028566;28;20413;-69
2023/01/29 02:36:06;;;;;;;13.23;6.50;;;6.70;99.90;;;;;;5069025;28;20035;-69
2023/01/29 02:38:39;;;;;;;14.68;6.70;;;6.70;99.90;;;;;;5058111;28;20025;-69
2023/01/29 02:41:28;;;;;;;15.23;6.68;;;6.70;99.90;;;;;;5062220;28;20732;-69
2023/01/29 02:44:16;;;;;;;15.27;6.90;;;6.70;99.90;;;;;;5068694;28;20024;-70
2023/01/29 02:47:08;;;;;;;17.67;7.60;;;6.60;99.90;;;;;;5059207;28;20133;-69
2023/01/29 02:49:45;;;;;;;16.08;7.00;;;6.70;99.90;;;;;;5057937;28;20028;-68
2023/01/29 02:52:18;;;;;;;16.33;7.63;;;6.70;99.90;;;;;;5068717;28;20056;-69
2023/01/29 02:55:07;;;;;;;16.08;7.95;;;6.70;99.90;;;;;;5059335;28;20108;-69
2023/01/29 02:57:36;;;;;;;16.23;7.35;;;6.70;99.90;;;;;;5057716;28;20059;-69
2023/01/29 03:00:21;;;;;;;16.65;7.65;;;6.60;99.90;;;;;;5068582;28;20407;-69
2023/01/29 03:02:58;;;;;;;15.60;7.55;;;6.70;99.90;;;;;;5059314;28;20064;-69
2023/01/29 03:05:42;;;;;;;19.00;8.38;;;6.70;99.90;;;;;;5064987;28;20111;-70
2023/01/29 03:08:10;;;;;;;15.88;7.32;;;6.70;99.90;;;;;;5055581;28;20025;-69
2023/01/29 03:10:53;;;;;;;18.17;8.35;;;6.70;99.90;;;;;;5072410;28;20024;-70
2023/01/29 03:13:50;;;;;;;17.52;8.77;;;6.60;99.90;;;;;;5059505;28;20021;-69
2023/01/29 03:16:30;;;;;;;19.20;8.45;;;6.70;99.90;;;;;;5055461;28;20040;-69
2023/01/29 03:19:02;;;;;;;18.25;8.50;;;6.60;99.90;;;;;;5062466;28;20049;-68
2023/01/29 03:21:53;;;;;;;17.52;8.25;;;6.60;99.90;;;;;;5064946;28;20105;-70
2023/01/29 03:33:08;;;;;;;21.20;9.57;;;6.60;99.90;;;;;;5061889;28;20036;-70
2023/01/29 03:35:38;;;;;;;25.02;9.90;;;6.50;99.90;;;;;;5057873;28;20163;-69
2023/01/29 03:38:07;;;;;;;18.92;9.10;;;6.50;99.90;;;;;;5068181;28;20494;-68
2023/01/29 03:40:41;;;;;;;22.13;9.90;;;6.40;99.90;;;;;;5055196;28;20103;-68
2023/01/29 03:43:23;;;;;;;21.75;10.25;;;6.40;99.90;;;;;;5062288;28;20023;-69
2023/01/29 03:46:01;;;;;;;19.10;9.40;;;6.40;99.90;;;;;;5055450;28;20429;-69
2023/01/29 03:48:40;;;;;;;22.90;10.55;;;6.50;99.90;;;;;;5056645;28;20021;-67
2023/01/29 03:51:27;;;;;;;21.02;10.45;;;6.50;99.90;;;;;;5062064;28;20116;-69
2023/01/29 03:53:55;;;;;;;19.73;9.75;;;6.50;99.90;;;;;;5072127;28;20364;-70
2023/01/29 03:56:50;;;;;;;21.20;10.13;;;6.50;99.90;;;;;;5059657;28;20040;-69
2023/01/29 03:59:39;;;;;;;22.42;10.48;;;6.50;99.90;;;;;;5066212;28;20028;-70
2023/01/29 04:02:26;;;;;;;21.27;10.25;;;6.60;99.90;;;;;;5073349;28;20112;-69
2023/01/29 04:04:56;;;;;;;20.98;10.43;;;6.60;99.90;;;;;;5063843;28;20024;-70
2023/01/29 04:07:23;;;;;;;20.88;9.55;;;6.50;99.90;;;;;;5062838;28;20449;-69
2023/01/29 04:10:12;;;;;;;20.55;10.35;;;6.50;99.90;;;;;;5071823;28;20069;-69
2023/01/29 04:12:44;;;;;;;23.70;11.43;;;6.50;99.90;;;;;;5061916;28;20029;-69
2023/01/29 04:15:14;;;;;;;19.40;9.57;;;6.50;99.90;;;;;;5064326;28;20033;-69
2023/01/29 04:17:43;;;;;;;25.42;10.38;;;6.50;99.90;;;;;;5069746;28;20051;-69
2023/01/29 04:20:10;;;;;;;23.75;11.13;;;6.50;99.90;;;;;;5058265;28;20071;-70
2023/01/29 04:22:38;;;;;;;23.50;10.75;;;6.50;99.90;;;;;;5068560;28;20025;-69
2023/01/29 04:25:14;;;;;;;25.95;11.82;;;6.50;99.90;;;;;;5067017;28;20043;-70
2023/01/29 04:28:01;;;;;;;21.70;11.35;;;6.50;99.90;;;;;;5062036;28;20032;-68
2023/01/29 04:31:04;;;;;;;22.92;11.02;;;6.60;99.90;;;;;;5063193;28;20025;-69
2023/01/29 04:33:47;;;;;;;24.98;11.55;;;6.50;99.90;;;;;;5062916;28;20512;-69
2023/01/29 04:36:35;;;;;;;23.38;12.13;;;6.50;99.90;;;;;;5061618;28;20051;-69
2023/01/29 04:39:04;;;;;;;21.88;12.18;;;6.50;99.90;;;;;;5064425;28;20044;-69
2023/01/29 04:41:41;;;;;;;24.20;11.10;;;6.50;99.90;;;;;;5063358;28;20033;-70
2023/01/29 04:44:33;;;;;;;22.75;10.95;;;6.50;99.90;;;;;;5063158;28;20052;-70
2023/01/29 04:47:22;;;;;;;24.73;11.93;;;6.50;99.90;;;;;;5064014;28;20039;-68
2023/01/29 04:50:09;;;;;;;22.63;12.00;;;6.50;99.90;;;;;;5060235;28;20032;-69
2023/01/29 04:52:59;;;;;;;24.70;11.57;;;6.40;99.90;;;;;;5063190;28;20025;-69
2023/01/29 04:55:29;;;;;;;26.83;13.00;;;6.40;99.90;;;;;;5062151;28;20025;-69
2023/01/29 04:58:13;;;;;;;23.58;11.52;;;6.40;99.90;;;;;;5062457;28;20024;-68
2023/01/29 05:00:44;;;;;;;22.48;11.75;;;6.40;99.90;;;;;;5062175;28;20029;-68
2023/01/29 05:03:14;;;;;;;24.92;11.90;;;6.40;99.90;;;;;;5064899;28;20021;-70
2023/01/29 05:05:42;;;;;;;25.17;12.45;;;6.40;99.90;;;;;;5064009;28;20039;-68
2023/01/29 05:08:11;;;;;;;22.17;10.68;;;6.40;99.90;;;;;;5062624;28;20023;-69
2023/01/29 05:10:38;;;;;;;23.25;12.10;;;6.40;99.90;;;;;;5062131;28;20032;-69
2023/01/29 05:13:07;;;;;;;26.67;12.43;;;6.40;99.90;;;;;;5063272;28;20503;-68
2023/01/29 05:15:38;;;;;;;23.95;11.93;;;6.30;99.90;;;;;;5064165;28;20040;-69
2023/01/29 05:18:07;;;;;;;25.90;13.13;;;6.40;99.90;;;;;;5062038;28;20051;-68
2023/01/29 05:20:36;;;;;;;27.52;13.45;;;6.40;99.90;;;;;;5061678;28;20469;-68
2023/01/29 05:23:03;;;;;;;24.25;11.40;;;6.40;99.90;;;;;;5063325;28;20028;-70
2023/01/29 05:25:30;;;;;;;26.55;12.80;;;6.40;99.90;;;;;;5063400;28;20104;-69
2023/01/29 05:28:15;;;;;;;26.60;13.20;;;6.40;99.90;;;;;;5061427;28;20017;-70
2023/01/29 05:30:48;;;;;;;24.75;11.15;;;6.50;99.90;;;;;;5061870;28;20484;-69
2023/01/29 05:33:32;;;;;;;24.77;12.25;;;6.40;99.90;;;;;;5061102;28;20052;-70
2023/01/29 05:35:59;;;;;;;26.42;12.35;;;6.50;99.90;;;;;;5065472;28;20036;-70
2023/01/29 05:38:24;;;;;;;26.45;12.38;;;6.50;99.90;;;;;;5062917;28;20036;-69
2023/01/29 05:40:50;;;;;;;23.35;11.13;;;6.50;99.90;;;;;;5063698;28;20029;-70
2023/01/29 05:43:18;;;;;;;27.73;12.32;;;6.50;99.90;;;;;;5060020;28;20029;-70
2023/01/29 05:45:56;;;;;;;26.02;13.02;;;6.50;99.90;;;;;;5062437;28;20039;-69
2023/01/29 05:48:22;;;;;;;31.83;13.55;;;6.50;99.90;;;;;;5061339;28;20025;-70
2023/01/29 05:50:48;;;;;;;24.08;12.85;;;6.40;99.90;;;;;;5061593;28;20025;-69
2023/01/29 05:53:13;;;;;;;27.95;13.45;;;6.50;99.90;;;;;;5061755;28;20035;-68
2023/01/29 05:55:42;;;;;;;29.30;13.82;;;6.60;99.90;;;;;;5053262;28;20033;-70
2023/01/29 05:58:08;;;;;;;26.23;12.93;;;6.60;99.90;;;;;;5058937;28;20476;-68
2023/01/29 06:00:33;;;;;;;26.00;13.52;;;6.60;99.90;;;;;;5061197;28;20051;-69
2023/01/29 06:02:59;;;;;;;27.08;13.50;;;6.60;99.90;;;;;;5062700;28;20027;-69
2023/01/29 06:05:25;;;;;;;29.98;14.02;;;6.60;99.90;;;;;;5061985;28;20540;-68
2023/01/29 06:07:51;;;;;;;28.08;13.82;;;6.70;99.90;;;;;;5060506;28;20115;-69
2023/01/29 06:10:17;;;;;;;28.58;14.60;;;6.70;99.90;;;;;;5064653;28;20059;-68
2023/01/29 06:12:43;;;;;;;27.45;13.30;;;6.60;99.90;;;;;;5061604;28;20095;-68
2023/01/29 06:15:09;;;;;;;27.70;12.82;;;6.60;99.90;;;;;;5062547;28;20029;-67
2023/01/29 06:17:35;;;;;;;29.55;13.63;;;6.60;99.90;;;;;;5062541;28;20082;-68
2023/01/29 06:20:01;;;;;;;28.58;13.55;;;6.60;99.90;;;;;;5060695;28;20461;-68
2023/01/29 06:22:26;;;;;;;31.67;14.95;;;6.60;99.90;;;;;;5061561;28;20096;-69
2023/01/29 06:24:52;;;;;;;35.30;15.57;;;6.60;99.90;;;;;;5057006;28;20130;-67
2023/01/29 06:27:18;;;;;;;30.55;15.25;;;6.60;99.90;;;;;;5063596;28;20063;-68
2023/01/29 06:29:43;;;;;;;35.50;16.92;;;6.50;99.90;;;;;;5061006;28;20422;-70
2023/01/29 06:32:11;;;;;;;30.67;14.25;;;6.50;99.90;;;;;;5061227;28;20028;-71
2023/01/29 06:34:37;;;;;;;33.42;15.77;;;6.50;99.90;;;;;;5062550;28;20026;-68
2023/01/29 06:37:02;;;;;;;32.08;15.45;;;6.50;99.90;;;;;;5061201;28;20045;-69
2023/01/29 06:39:28;;;;;;;33.72;15.43;;;6.50;99.90;;;;;;5060882;28;20104;-68
2023/01/29 06:41:53;;;;;;;31.55;14.95;;;6.50;99.90;;;;;;5060339;28;20029;-70
2023/01/29 06:44:19;;;;;;;34.33;16.00;;;6.50;99.90;;;;;;5062657;28;20033;-69
2023/01/29 06:46:45;;;;;;;35.03;18.50;;;6.40;99.90;;;;;;5061303;28;20424;-70
2023/01/29 06:49:11;;;;;;;34.55;15.82;;;6.40;99.90;;;;;;5042701;28;20028;-70
2023/01/29 06:51:36;;;;;;;35.28;16.65;;;6.30;99.90;;;;;;5062551;28;20126;-69
2023/01/29 06:54:02;;;;;;;34.75;15.93;;;6.30;99.90;;;;;;5061709;28;20028;-68
2023/01/29 06:56:28;;;;;;;34.72;15.55;;;6.40;99.90;;;;;;5061569;28;20114;-69
2023/01/29 06:58:54;;;;;;;33.40;15.25;;;6.40;99.90;;;;;;5060252;28;20033;-69
2023/01/29 07:01:19;;;;;;;38.88;17.58;;;6.40;99.90;;;;;;5061864;28;20085;-68
2023/01/29 07:03:49;;;;;;;32.42;14.20;;;6.40;99.90;;;;;;5062232;28;20430;-68
2023/01/29 07:06:15;;;;;;;29.98;13.85;;;6.50;99.90;;;;;;5062042;28;20039;-68
2023/01/29 07:08:40;;;;;;;32.13;14.80;;;6.60;99.90;;;;;;5061599;28;20028;-70
2023/01/29 07:11:06;;;;;;;41.58;15.77;;;6.60;99.90;;;;;;5051629;28;20494;-68
2023/01/29 07:13:32;;;;;;;31.50;13.90;;;6.70;99.90;;;;;;5069102;28;20021;-70
2023/01/29 07:16:02;;;;;;;34.30;16.75;;;6.70;99.90;;;;;;5069866;28;20380;-68
2023/01/29 07:18:29;;;;;;;40.25;18.70;;;6.70;99.90;;;;;;5069526;28;20123;-69
2023/01/29 07:20:55;;;;;;;34.33;16.10;;;6.70;99.90;;;;;;5063437;28;20029;-69
2023/01/29 07:23:20;;;;;;;38.85;18.42;;;6.70;99.90;;;;;;5055261;28;20501;-69
2023/01/29 07:25:48;;;;;;;38.88;19.02;;;6.60;99.90;;;;;;5064565;28;20029;-68
2023/01/29 07:28:15;;;;;;;34.65;15.82;;;6.60;99.90;;;;;;5071122;28;20024;-68
2023/01/29 07:30:41;;;;;;;33.92;16.73;;;6.50;99.90;;;;;;5064912;28;20594;-68
2023/01/29 07:33:08;;;;;;;37.60;19.13;;;6.50;99.90;;;;;;5065079;28;20138;-68
2023/01/29 07:35:39;;;;;;;42.78;21.17;;;6.40;99.90;;;;;;5067223;28;20025;-68
2023/01/29 07:38:05;;;;;;;39.95;19.83;;;6.40;99.90;;;;;;5074813;28;20029;-68
2023/01/29 07:40:31;;;;;;;40.25;19.17;;;6.40;99.90;;;;;;5060370;28;20082;-68
2023/01/29 07:43:01;;;;;;;46.25;21.35;;;6.40;99.90;;;;;;5066959;28;20024;-68
2023/01/29 07:45:28;;;;;;;40.08;18.27;;;6.40;99.90;;;;;;5074852;28;20029;-68
2023/01/29 07:47:54;;;;;;;36.13;16.38;;;6.50;99.90;;;;;;5073029;28;20028;-68
2023/01/29 07:50:21;;;;;;;36.80;16.00;;;6.50;99.90;;;;;;5074828;28;20021;-69
2023/01/29 07:52:47;;;;;;;38.85;17.77;;;6.50;99.90;;;;;;5074754;28;20103;-68
2023/01/29 07:55:13;;;;;;;36.42;15.85;;;6.50;99.90;;;;;;5058056;28;20242;-68
2023/01/29 07:57:38;;;;;;;35.50;16.88;;;6.50;99.90;;;;;;5069190;28;20043;-68
2023/01/29 08:00:04;;;;;;;31.25;14.15;;;6.60;99.90;;;;;;5063108;28;20039;-67
2023/01/29 08:02:30;;;;;;;34.63;16.30;;;6.70;99.90;;;;;;5067859;28;20072;-68
2023/01/29 08:04:55;;;;;;;33.65;14.70;;;6.70;99.90;;;;;;5072337;28;20048;-68
2023/01/29 08:07:21;;;;;;;32.60;14.48;;;6.80;99.90;;;;;;5071230;28;20071;-69
2023/01/29 08:09:46;;;;;;;28.98;12.85;;;6.90;99.90;;;;;;5060822;28;20075;-68
2023/01/29 08:12:12;;;;;;;28.90;12.60;;;6.90;99.90;;;;;;5064216;28;20079;-68
2023/01/29 08:14:38;;;;;;;25.25;12.20;;;7.00;99.90;;;;;;5049393;28;20024;-68
2023/01/29 08:17:04;;;;;;;24.58;12.23;;;7.00;99.90;;;;;;5058069;28;20481;-69
2023/01/29 08:19:30;;;;;;;23.02;9.90;;;7.00;99.90;;;;;;5056861;28;20145;-68
2023/01/29 08:21:55;;;;;;;20.38;8.52;;;7.10;99.90;;;;;;5054783;28;20381;-68
2023/01/29 08:24:21;;;;;;;19.92;8.77;;;7.10;99.90;;;;;;5049335;28;20139;-69
2023/01/29 08:26:46;;;;;;;16.60;6.82;;;7.20;99.90;;;;;;5039352;28;20030;-68
2023/01/29 08:29:12;;;;;;;18.30;7.50;;;7.20;99.90;;;;;;5050652;28;20033;-69
2023/01/29 08:31:38;;;;;;;18.95;7.30;;;7.20;99.90;;;;;;5038975;28;20490;-68
2023/01/29 08:34:03;;;;;;;18.65;7.45;;;7.30;99.90;;;;;;5044701;28;20034;-68
2023/01/29 08:36:29;;;;;;;17.60;8.25;;;7.30;99.90;;;;;;5036013;28;20041;-68
2023/01/29 08:38:54;;;;;;;17.90;6.80;;;7.40;99.90;;;;;;5049204;28;20083;-68
2023/01/29 08:41:20;;;;;;;16.52;6.70;;;7.40;99.90;;;;;;5050708;28;20037;-69
2023/01/29 08:43:45;;;;;;;19.33;6.47;;;7.50;99.90;;;;;;5046752;28;20036;-69
2023/01/29 08:46:11;;;;;;;17.23;6.70;;;7.60;99.90;;;;;;5037590;28;20044;-69
2023/01/29 08:48:36;;;;;;;16.35;6.70;;;7.60;99.90;;;;;;5046571;28;20033;-68
2023/01/29 08:51:03;;;;;;;25.67;6.80;;;7.60;99.90;;;;;;5036977;28;20029;-68
2023/01/29 08:53:29;;;;;;;11.98;5.82;;;7.70;99.90;;;;;;5037733;28;20017;-68
2023/01/29 08:55:55;;;;;;;18.08;6.53;;;7.70;99.90;;;;;;5045832;28;20087;-70
2023/01/29 08:58:21;;;;;;;16.42;6.55;;;7.60;99.90;;;;;;5044459;28;20032;-69
2023/01/29 09:00:46;;;;;;;12.98;4.95;;;7.70;99.90;;;;;;5051899;28;20100;-69
2023/01/29 09:03:12;;;;;;;11.00;5.30;;;7.70;99.90;;;;;;5052098;28;20022;-69
2023/01/29 09:05:39;;;;;;;13.30;5.60;;;7.80;99.90;;;;;;5053595;28;20036;-68
2023/01/29 09:08:06;;;;;;;12.95;5.25;;;7.80;99.90;;;;;;5054193;28;20110;-69
2023/01/29 09:10:31;;;;;;;9.45;4.15;;;7.90;99.90;;;;;;5054403;28;20028;-69
2023/01/29 09:12:57;;;;;;;15.20;4.95;;;7.90;99.90;;;;;;5054301;28;20040;-70
2023/01/29 09:15:23;;;;;;;13.80;4.65;;;8.00;99.90;;;;;;5054432;28;20485;-69
2023/01/29 09:17:49;;;;;;;12.25;4.97;;;8.00;99.90;;;;;;5052266;28;20033;-69
2023/01/29 09:20:15;;;;;;;9.88;3.75;;;8.10;99.90;;;;;;5036142;28;20029;-71
2023/01/29 09:22:41;;;;;;;11.10;4.28;;;8.00;99.90;;;;;;5054125;28;20059;-70
2023/01/29 09:25:08;;;;;;;11.48;4.22;;;8.00;99.90;;;;;;5053278;28;20107;-69
2023/01/29 09:27:33;;;;;;;9.35;3.63;;;8.00;99.90;;;;;;5049182;28;20039;-68
2023/01/29 09:29:59;;;;;;;9.73;3.97;;;8.00;99.90;;;;;;5054237;28;20029;-69
2023/01/29 09:32:25;;;;;;;11.15;3.42;;;8.00;99.90;;;;;;5052463;28;20048;-70
2023/01/29 09:34:50;;;;;;;9.52;3.13;;;8.00;99.90;;;;;;5053580;28;20033;-70
2023/01/29 09:37:21;;;;;;;15.43;4.00;;;8.10;99.90;;;;;;5053093;28;20098;-68
2023/01/29 09:39:47;;;;;;;8.18;3.45;;;8.10;99.90;;;;;;5053828;28;20362;-68
2023/01/29 09:42:42;;;;;;;5.88;2.97;;;8.10;99.90;;;;;;5053959;28;20119;-70
2023/01/29 09:45:08;;;;;;;8.23;3.00;;;8.10;99.90;;;;;;5034679;28;20033;-68
2023/01/29 09:47:35;;;;;;;13.38;3.58;;;8.00;99.90;;;;;;5051667;28;20034;-70
2023/01/29 09:50:16;;;;;;;5.68;3.13;;;8.10;99.90;;;;;;5052572;28;20115;-70
2023/01/29 09:53:06;;;;;;;6.63;2.88;;;8.20;99.90;;;;;;5048510;28;20032;-70
2023/01/29 09:55:38;;;;;;;10.40;3.25;;;8.20;99.90;;;;;;5041822;28;20026;-69
2023/01/29 09:58:09;;;;;;;;;;;8.20;99.90;;;;;;5042635;28;20013;-69
2023/01/29 10:00:59;;;;;;;7.00;3.67;;;8.20;99.90;;;;;;5041451;28;20327;-70
2023/01/29 10:03:42;;;;;;;10.82;3.45;;;8.30;99.90;;;;;;5046845;28;20025;-69
2023/01/29 10:06:32;;;;;;;6.43;3.47;;;8.30;99.90;;;;;;5043929;28;20025;-70
2023/01/29 10:09:19;;;;;;;7.10;3.60;;;8.20;99.90;;;;;;5043668;28;20512;-68
2023/01/29 10:12:07;;;;;;;9.18;4.03;;;8.20;99.90;;;;;;5042981;28;20025;-68
2023/01/29 10:14:42;;;;;;;8.27;3.53;;;8.00;99.90;;;;;;5045609;28;20119;-70
2023/01/29 10:17:38;;;;;;;10.75;3.88;;;8.00;99.90;;;;;;5053230;28;20040;-68
2023/01/29 10:20:44;;;;;;;8.20;3.30;;;7.90;99.90;;;;;;5072518;28;20182;-69
2023/01/29 10:23:20;;;;;;;10.05;3.53;;;8.00;99.90;;;;;;5073028;28;20112;-68
2023/01/29 10:25:47;;;;;;;8.60;3.75;;;8.10;99.90;;;;;;5054045;28;20373;-70
2023/01/29 10:28:18;;;;;;;7.38;3.15;;;8.10;99.90;;;;;;5070089;28;20025;-70
2023/01/29 10:30:46;;;;;;;;;;;8.20;99.90;;;;;;5073468;28;20047;-71
2023/01/29 10:33:23;;;;;;;8.43;2.60;;;8.10;99.90;;;;;;5073019;28;19912;-70
2023/01/29 10:35:55;;;;;;;6.78;3.35;;;8.20;99.90;;;;;;5073466;28;20035;-69
2023/01/29 10:38:47;;;;;;;;;;;8.20;99.90;;;;;;5073417;28;20070;-70
2023/01/29 10:41:19;;;;;;;6.75;3.20;;;8.20;99.90;;;;;;5070130;28;20272;-69
2023/01/29 10:43:54;;;;;;;7.68;2.90;;;8.20;99.90;;;;;;5072531;28;20024;-69
2023/01/29 10:46:47;;;;;;;6.00;2.63;;;8.20;99.90;;;;;;5072922;28;20024;-70
2023/01/29 10:49:24;;;;;;;6.20;2.95;;;8.20;99.90;;;;;;5072140;28;20028;-69
2023/01/29 10:52:05;;;;;;;6.25;2.78;;;8.20;99.90;;;;;;5071866;28;20032;-70
2023/01/29 10:54:43;;;;;;;7.50;2.90;;;8.30;99.90;;;;;;5072462;28;20025;-68
2023/01/29 10:57:51;;;;;;;8.27;3.53;;;8.30;99.90;;;;;;5072321;28;20082;-70
2023/01/29 11:00:26;;;;;;;8.70;3.90;;;8.30;99.90;;;;;;5071974;28;20108;-70
2023/01/29 11:02:52;;;;;;;12.05;4.68;;;8.20;99.90;;;;;;5071961;28;20029;-69
2023/01/29 11:05:39;;;;;;;9.55;4.35;;;8.20;99.90;;;;;;5072039;28;20035;-70
2023/01/29 11:08:19;;;;;;;13.57;5.55;;;8.20;99.90;;;;;;5072188;28;20476;-69
2023/01/29 11:11:10;;;;;;;12.05;5.28;;;8.20;99.90;;;;;;5072465;28;20036;-69
2023/01/29 11:13:44;;;;;;;12.77;5.07;;;8.20;99.90;;;;;;5052039;28;20036;-69
2023/01/29 11:16:10;;;;;;;11.38;5.00;;;8.10;99.90;;;;;;5051411;28;20124;-68
2023/01/29 11:18:57;;;;;;;13.15;5.18;;;8.10;99.90;;;;;;5051943;28;20128;-71
2023/01/29 11:21:24;;;;;;;6.47;4.03;;;8.10;99.90;;;;;;5051612;28;20040;-68
2023/01/29 11:24:12;;;;;;;11.45;4.45;;;8.10;99.90;;;;;;5051522;28;20017;-70
2023/01/29 11:26:40;;;;;;;13.13;4.88;;;8.10;99.90;;;;;;5052242;28;20027;-70
2023/01/29 11:29:35;;;;;;;17.05;5.00;;;8.10;99.90;;;;;;5051975;28;20029;-70
2023/01/29 11:32:10;;;;;;;9.48;3.85;;;8.10;99.90;;;;;;5052348;28;20029;-71
2023/01/29 11:35:18;;;;;;;12.85;4.50;;;8.00;99.90;;;;;;5071552;28;20048;-69
2023/01/29 11:37:45;;;;;;;11.93;4.05;;;8.00;99.90;;;;;;5072227;28;20043;-68
2023/01/29 11:40:35;;;;;;;14.05;4.30;;;8.00;99.90;;;;;;5072013;28;20028;-70
2023/01/29 11:43:19;;;;;;;9.77;4.22;;;8.00;99.90;;;;;;5072053;28;20021;-69
2023/01/29 11:45:45;;;;;;;11.13;3.85;;;8.10;99.90;;;;;;5071665;28;20027;-70
2023/01/29 11:48:19;;;;;;;10.68;3.72;;;8.00;99.90;;;;;;5064316;28;20040;-69
2023/01/29 11:50:57;;;;;;;8.82;3.42;;;8.00;99.90;;;;;;5052104;28;20469;-68
2023/01/29 11:53:34;;;;;;;7.03;3.42;;;8.10;99.90;;;;;;5052125;28;20021;-69
2023/01/29 11:56:14;;;;;;;6.97;3.13;;;8.00;99.90;;;;;;5055103;28;20480;-70
2023/01/29 11:58:41;;;;;;;11.15;3.92;;;8.00;99.90;;;;;;5053786;28;20028;-69
2023/01/29 12:01:09;;;;;;;10.52;3.80;;;8.00;99.90;;;;;;5047702;28;20029;-70
2023/01/29 12:03:40;;;;;;;8.55;4.13;;;8.00;99.90;;;;;;5067191;28;20025;-70
2023/01/29 12:06:31;;;;;;;7.90;3.70;;;8.00;99.90;;;;;;5071734;28;20025;-68
2023/01/29 12:09:02;;;;;;;6.05;3.28;;;8.00;99.90;;;;;;5053937;28;20025;-70
2023/01/29 12:11:31;;;;;;;8.87;4.07;;;8.10;99.90;;;;;;5071749;28;20036;-70
2023/01/29 12:13:59;;;;;;;10.02;4.10;;;8.10;99.90;;;;;;5075644;28;20032;-69
2023/01/29 12:16:35;;;;;;;9.38;3.65;;;8.10;99.90;;;;;;5075179;28;20472;-69
2023/01/29 12:19:23;;;;;;;11.32;4.20;;;8.20;99.90;;;;;;5074834;28;20463;-70
2023/01/29 12:21:56;;;;;;;11.73;4.22;;;8.30;99.90;;;;;;5074626;28;20040;-69
2023/01/29 12:24:37;;;;;;;10.45;4.57;;;8.30;99.90;;;;;;5073922;28;20028;-71
2023/01/29 12:27:11;;;;;;;9.45;3.78;;;8.40;99.90;;;;;;5075088;28;20090;-69
2023/01/29 12:30:02;;;;;;;10.27;4.68;;;8.50;99.90;;;;;;5075080;28;20029;-69
2023/01/29 12:33:05;;;;;;;14.07;4.47;;;8.50;99.90;;;;;;5074794;28;20029;-70
2023/01/29 12:35:37;;;;;;;16.17;5.68;;;8.50;99.90;;;;;;5057158;28;20093;-69
2023/01/29 12:38:25;;;;;;;13.05;5.00;;;8.40;99.90;;;;;;5074979;28;20033;-70
2023/01/29 12:40:57;;;;;;;12.13;4.57;;;8.40;99.90;;;;;;5074924;28;20081;-69
2023/01/29 12:43:56;;;;;;;15.45;5.20;;;8.20;99.90;;;;;;5074876;28;20016;-69
2023/01/29 12:46:27;;;;;;;18.20;4.88;;;8.10;99.90;;;;;;5071425;28;20119;-69
2023/01/29 12:48:55;;;;;;;14.47;5.30;;;8.10;99.90;;;;;;5075216;28;20107;-68
2023/01/29 12:51:36;;;;;;;12.75;4.80;;;8.00;99.90;;;;;;5074560;28;20253;-68
2023/01/29 12:54:07;;;;;;;12.68;5.03;;;7.90;99.90;;;;;;5074860;28;20371;-69
2023/01/29 12:56:48;;;;;;;11.63;5.10;;;7.80;99.90;;;;;;5073891;28;20093;-69
2023/01/29 12:59:24;;;;;;;13.23;5.20;;;7.70;99.90;;;;;;5074958;28;20140;-68
2023/01/29 13:01:55;;;;;;;16.05;6.25;;;7.70;99.90;;;;;;5055661;28;20052;-69
2023/01/29 13:04:50;;;;;;;16.63;5.47;;;7.60;99.90;;;;;;5054449;28;20362;-68
2023/01/29 13:07:22;;;;;;;16.35;6.00;;;7.60;99.90;;;;;;5044361;28;20048;-70
2023/01/29 13:09:53;;;;;;;15.25;5.07;;;7.50;99.90;;;;;;5074720;28;20016;-68
2023/01/29 13:12:21;;;;;;;16.38;5.97;;;7.40;99.90;;;;;;5074571;28;20028;-70
2023/01/29 13:14:56;;;;;;;18.75;7.30;;;7.40;99.90;;;;;;5074736;28;20021;-70
2023/01/29 13:17:39;;;;;;;21.27;7.85;;;7.30;99.90;;;;;;5073618;28;20453;-69
2023/01/29 13:20:39;;;;;;;23.52;10.48;;;7.30;99.90;;;;;;5073967;28;20083;-70
2023/01/29 13:23:24;;;;;;;29.88;10.98;;;7.40;99.90;;;;;;5073400;28;20028;-70
2023/01/29 13:25:51;;;;;;;27.73;11.18;;;7.40;99.90;;;;;;5073678;28;20032;-69
2023/01/29 13:28:20;;;;;;;36.85;12.88;;;7.40;99.90;;;;;;5073597;28;20028;-70
2023/01/29 13:30:46;;;;;;;27.05;11.30;;;7.30;99.90;;;;;;5086346;28;20024;-68
2023/01/29 13:33:22;;;;;;;31.40;12.35;;;7.40;99.90;;;;;;5067195;28;20048;-68
2023/01/29 13:35:56;;;;;;;34.53;13.82;;;7.40;99.90;;;;;;5070226;28;20081;-68
2023/01/29 13:38:26;;;;;;;35.17;15.25;;;7.40;99.90;;;;;;5064533;28;20029;-68
2023/01/29 13:41:00;;;;;;;32.00;12.57;;;7.40;99.90;;;;;;5066693;28;20028;-68